This is the latest recevied weather packets stored in our database for station/object WMKK. If no packets are shown the sender has not sent any weather packets the latest 10 day(s).
| Time | Temp. | Humidity | Pressure | Rain* | Wind** | Luminosity | Snow |
|---|---|---|---|---|---|---|---|
| 1777723818 | 27.78° C | 88% | 1007 hPa | - | - | - | - |
| 1777721999 | 27.78° C | 88% | 1006 hPa | - | - | - | - |
| 1777720215 | 28.89° C | 83% | 1006 hPa | - | - | - | - |
| 1777718396 | 28.89° C | 83% | 1005 hPa | - | - | - | - |
| 1777716621 | 28.89° C | 83% | 1005 hPa | - | - | - | - |
| 1777714799 | 28.89° C | 88% | 1005 hPa | - | - | - | - |
| 1777713013 | 28.89° C | 88% | 1005 hPa | - | - | - | - |
| 1777711196 | 28.89° C | 88% | 1005 hPa | - | - | - | - |
| 1777709413 | 28.89° C | 88% | 1005 hPa | - | - | - | - |
| 1777708795 | 28.89° C | 83% | 1006 hPa | - | - | - | - |
| 1777707595 | 28.89° C | 83% | 1006 hPa | - | - | - | - |
| 1777705815 | 30.56° C | 74% | 1006 hPa | - | - | - | - |
| 1777705197 | 30.56° C | 74% | 1006 hPa | - | - | - | - |
| 1777703995 | 31.67° C | 70% | 1006 hPa | - | - | - | - |
| 1777702221 | 33.89° C | 59% | 1007 hPa | - | - | - | - |
| 1777700397 | 35° C | 56% | 1007 hPa | - | - | - | - |
| 1777698617 | 32.78° C | 59% | 1008 hPa | - | - | - | - |
| 1777696795 | 32.78° C | 59% | 1009 hPa | - | - | - | - |
| 1777695013 | 32.78° C | 62% | 1009 hPa | - | - | - | - |
| 1777693195 | 32.78° C | 62% | 1009 hPa | - | - | - | - |
| 1777691413 | 31.67° C | 70% | 1010 hPa | - | - | - | - |
| 1777689594 | 31.67° C | 66% | 1010 hPa | - | - | - | - |
| 1777673412 | 25° C | 94% | 1007 hPa | - | - | - | - |
| 1777666212 | 25° C | 94% | 1007 hPa | - | - | - | - |
| 1777662612 | 25° C | 94% | 1008 hPa | - | - | - | - |
* Rain since midnight (hover to see other rain measurements)
** Current wind speed in m/s (hover to see current wind gust speed)